Latest Weather Observations for Horsham AWS

IDV60801

Issued at 10:05 pm EDT Saturday 25 October 2014 (issued every 30 minutes, with the page automatically refreshed every 10 minutes)

About weather observations | Map of weather stations | Latest weather observations for VIC | Other Formats
Station Details ID: 079100 Name: HORSHAM AERODROME Lat: -36.67 Lon: 142.17 Height: 133.8 m
Data from the previous 72 hours. | See also: Recent months at Horsham AWS
Date/Time
EDT
Temp
°C
App
Temp
°C
Dew
Point
Rel
Hum
%
Delta-T
°C
Wind Press
QNH
hPa
Press
MSL
hPa
Rain
since 9 am
mm
Dir
 
Spd
km/h
Gust
km/h
Spd
kts
Gust
kts
25/10:00pm 15.4 12.2 10.0 70 2.8 S 17 20 9 11 1015.1 1015.0 0.0
25/09:30pm 16.8 13.4 10.6 67 3.3 S 19 24 10 13 1015.0 1014.9 0.0
25/09:00pm 18.3 14.4 10.7 61 4.1 S 22 30 12 16 1014.7 1014.6 0.0
25/08:30pm 19.7 16.1 10.4 55 5.1 SSW 20 28 11 15 1014.3 1014.2 0.0
25/08:00pm 21.1 17.5 9.7 48 6.2 SSW 19 22 10 12 1013.9 1013.8 0.0
25/07:30pm 22.9 19.0 9.3 42 7.4 SSW 20 26 11 14 1013.4 1013.4 0.0
25/07:00pm 24.0 19.6 8.8 38 8.2 SSW 22 30 12 16 1012.9 1012.9 0.0
25/06:30pm 25.2 20.6 8.2 34 9.1 SSW 22 30 12 16 1012.8 1012.8 0.0
25/06:00pm 26.0 20.6 8.0 32 9.7 SSW 26 35 14 19 1012.7 1012.7 0.0
25/05:30pm 26.9 22.1 7.4 29 10.4 SW 22 32 12 17 1012.3 1012.3 0.0
25/05:00pm 27.5 22.6 6.8 27 11.0 SW 22 33 12 18 1012.3 1012.3 0.0
25/04:30pm 27.5 22.2 6.8 27 11.0 SW 24 35 13 19 1012.5 1012.5 0.0
25/04:00pm 28.4 23.9 7.1 26 11.4 WSW 20 28 11 15 1012.4 1012.4 0.0
25/03:30pm 28.2 23.4 7.4 27 11.2 SSW 22 28 12 15 1012.5 1012.5 0.0
25/03:00pm 27.1 22.5 6.5 27 10.9 WSW 20 30 11 16 1012.9 1012.9 0.0
25/02:30pm 26.5 22.1 6.5 28 10.5 WSW 19 30 10 16 1013.3 1013.3 0.0
25/02:00pm 26.5 22.3 7.5 30 10.2 SSW 19 24 10 13 1013.7 1013.6 0.0
25/01:30pm 25.7 22.7 7.8 32 9.6 SSW 13 20 7 11 1014.1 1014.0 0.0
25/01:00pm 24.1 22.1 8.5 37 8.4 W 9 17 5 9 1014.5 1014.4 0.0
25/12:30pm 23.0 21.0 8.7 40 7.7 W 9 17 5 9 1015.2 1015.1 0.0
25/12:00pm 21.6 20.0 8.8 44 6.8 W 7 15 4 8 1015.7 1015.6 0.0
25/11:30am 20.6 18.8 9.5 49 6.0 SW 9 17 5 9 1016.1 1016.1 0.0
25/11:00am 19.4 17.6 9.3 52 5.4 SSW 9 13 5 7 1016.4 1016.4 0.0
25/10:30am 18.3 17.0 9.9 58 4.5 S 7 13 4 7 1016.4 1016.4 0.0
25/10:00am 16.8 15.1 10.0 64 3.6 SW 9 13 5 7 1016.4 1016.4 0.0
25/09:30am 16.1 14.5 10.2 68 3.1 SSW 9 13 5 7 1016.4 1016.4 0.0
25/09:00am 15.6 14.4 10.2 70 2.8 SE 7 15 4 8 1016.0 1016.0 0.0
25/08:30am 14.0 13.4 10.4 79 1.9 SSE 4 9 2 5 1016.2 1016.2 0.0
25/08:00am 12.2 10.9 10.1 87 1.1 S 7 7 4 4 1015.9 1015.9 0.0
25/07:30am 10.3 8.8 9.2 93 0.5 S 7 9 4 5 1015.7 1015.6 0.0
25/07:16am 9.5 7.0 8.4 93 0.5 S 11 11 6 6 1015.6 1015.5 0.0
25/07:00am 8.6 6.3 7.5 93 0.5 S 9 11 5 6 1015.6 1015.5 0.0
25/06:49am 9.0 6.8 7.9 93 0.5 S 9 11 5 6 1015.7 1015.6 0.0
25/06:30am 9.4 7.4 8.5 94 0.4 SSW 9 11 5 6 1015.7 1015.6 0.0
25/06:00am 9.5 7.1 8.6 94 0.4 SSW 11 15 6 8 1015.5 1015.4 0.0
25/05:30am 9.4 6.5 8.3 93 0.5 S 13 15 7 8 1015.2 1015.1 0.0
25/05:00am 10.1 7.0 9.0 93 0.5 SSW 15 17 8 9 1015.2 1015.1 0.0
25/04:30am 10.2 7.9 9.0 92 0.6 SSW 11 13 6 7 1015.2 1015.1 0.0
25/04:22am 9.9 7.9 8.7 92 0.6 SSW 9 11 5 6 1015.2 1015.1 0.0
25/04:00am 10.4 8.1 9.0 91 0.7 S 11 11 6 6 1015.2 1015.1 0.0
25/03:30am 11.0 8.1 9.6 91 0.7 S 15 17 8 9 1015.0 1014.9 0.0
25/03:00am 11.3 8.8 9.7 90 0.8 S 13 15 7 8 1015.2 1015.1 0.0
25/02:30am 12.2 9.5 10.4 89 0.9 S 15 17 8 9 1015.3 1015.2 0.0
25/02:00am 13.3 10.5 11.4 88 1.0 S 17 20 9 11 1015.3 1015.2 0.0
25/01:30am 12.3 9.9 9.9 85 1.2 SSW 13 15 7 8 1015.5 1015.4 0.0
25/01:00am 13.7 11.9 10.9 83 1.5 SSW 11 13 6 7 1015.7 1015.6 0.0
25/12:30am 14.6 13.3 11.2 80 1.8 SW 9 13 5 7 1015.8 1015.8 0.0
25/12:00am 15.2 12.7 11.2 77 2.1 SSW 15 17 8 9 1015.4 1015.3 0.0
 
Date/Time
EDT
Temp
°C
App
Temp
°C
Dew
Point
Rel
Hum
%
Delta-T
°C
Wind Press
QNH
hPa
Press
MSL
hPa
Rain
since 9 am
mm
Dir
 
Spd
km/h
Gust
km/h
Spd
kts
Gust
kts
24/11:30pm 16.4 13.7 11.6 73 2.6 SSW 17 22 9 12 1015.4 1015.3 0.0
24/11:00pm 16.9 14.8 11.2 69 3.1 SSW 13 15 7 8 1015.4 1015.3 0.0
24/10:30pm 18.2 15.8 11.3 64 3.8 SW 15 19 8 10 1015.4 1015.3 0.0
24/10:00pm 19.1 14.9 8.1 49 5.7 SW 20 26 11 14 1015.0 1014.9 0.0
24/09:30pm 20.5 16.7 4.1 34 7.9 W 13 15 7 8 1014.6 1014.5 0.0
24/09:00pm 21.4 18.1 4.5 33 8.3 WSW 11 13 6 7 1014.1 1014.0 0.0
24/08:30pm 22.3 19.0 4.8 32 8.7 WSW 11 13 6 7 1013.8 1013.7 0.0
24/08:00pm 23.6 20.5 5.5 31 9.2 WSW 11 15 6 8 1013.3 1013.3 0.0
24/07:30pm 25.9 21.7 5.5 27 10.5 SW 17 20 9 11 1012.9 1012.9 0.0
24/07:00pm 27.3 22.5 5.6 25 11.3 WSW 20 28 11 15 1012.7 1012.7 0.0
24/06:30pm 27.9 23.2 6.1 25 11.5 WSW 20 30 11 16 1012.3 1012.3 0.0
24/06:00pm 28.6 23.5 6.1 24 11.9 W 22 30 12 16 1012.2 1012.2 0.0
24/05:30pm 28.8 23.4 4.3 21 12.6 W 22 32 12 17 1011.9 1011.9 0.0
24/05:00pm 28.6 22.9 4.8 22 12.3 W 24 33 13 18 1011.8 1011.8 0.0
24/04:30pm 29.3 23.0 4.0 20 13.0 W 26 33 14 18 1011.9 1011.9 0.0
24/04:00pm 29.1 22.2 4.6 21 12.7 W 30 43 16 23 1012.2 1012.2 0.0
24/03:30pm 28.9 23.2 5.1 22 12.4 W 24 39 13 21 1012.1 1012.1 0.0
24/03:00pm 30.1 23.4 5.4 21 13.0 W 30 39 16 21 1012.1 1012.1 0.0
24/02:30pm 29.5 22.4 3.5 19 13.2 W 30 43 16 23 1012.4 1012.4 0.0
24/02:00pm 29.4 22.6 1.0 16 13.8 W 26 39 14 21 1012.5 1012.5 0.0
24/01:30pm 28.5 22.6 4.1 21 12.5 W 24 37 13 20 1012.7 1012.7 0.0
24/01:00pm 27.5 21.2 5.7 25 11.4 W 28 50 15 27 1012.9 1012.9 0.0
24/12:58pm 27.7 21.2 4.7 23 11.8 W 28 50 15 27 1012.8 1012.8 0.0
24/12:30pm 27.6 21.0 4.0 22 12.0 W 28 39 15 21 1013.0 1013.0 0.0
24/12:00pm 25.8 20.4 6.4 29 10.1 WNW 24 32 13 17 1013.1 1013.1 0.0
24/11:30am 23.9 20.7 9.9 41 7.7 W 17 26 9 14 1013.3 1013.3 0.0
24/11:00am 22.8 20.8 12.7 53 5.8 WNW 15 26 8 14 1013.6 1013.5 0.0
24/10:30am 20.6 19.5 13.1 62 4.3 NW 11 17 6 9 1013.6 1013.5 0.0
24/10:00am 18.4 17.6 13.0 71 3.1 NW 9 13 5 7 1013.4 1013.4 0.0
24/09:30am 17.5 17.0 12.6 73 2.7 NW 7 9 4 5 1013.1 1013.1 0.0
24/09:00am 16.8 17.5 12.3 75 2.5 CALM 0 0 0 0 1013.1 1013.1 0.2
24/08:30am 16.5 17.2 12.3 76 2.3 CALM 0 0 0 0 1012.9 1012.9 0.2
24/08:00am 14.7 15.1 11.3 80 1.8 CALM 0 0 0 0 1012.6 1012.6 0.2
24/07:30am 11.3 11.1 9.2 87 1.1 CALM 0 0 0 0 1012.6 1012.6 0.2
24/07:00am 9.8 9.3 7.7 87 1.0 CALM 0 0 0 0 1012.5 1012.5 0.2
24/06:30am 9.2 8.6 7.3 88 0.9 CALM 0 0 0 0 1012.3 1012.3 0.2
24/06:00am 10.8 9.2 8.9 88 0.9 WSW 7 7 4 4 1012.1 1012.1 0.2
24/05:30am 11.0 9.2 9.4 90 0.8 WSW 9 9 5 5 1012.2 1012.2 0.2
24/05:00am 11.4 10.1 10.0 91 0.7 SW 7 9 4 5 1012.0 1012.0 0.2
24/04:30am 10.2 8.6 8.0 86 1.1 SW 6 7 3 4 1011.9 1011.9 0.2
24/04:00am 11.7 10.3 9.6 87 1.1 W 7 9 4 5 1012.2 1012.2 0.2
24/03:30am 12.2 11.0 9.4 83 1.4 W 6 9 3 5 1012.3 1012.3 0.2
24/03:00am 13.6 11.8 10.9 84 1.4 W 11 15 6 8 1012.4 1012.4 0.2
24/02:30am 13.6 12.2 10.8 83 1.5 WSW 9 11 5 6 1012.3 1012.3 0.2
24/02:00am 14.5 14.5 11.3 81 1.7 S 2 7 1 4 1012.6 1012.6 0.2
24/01:30am 14.7 14.9 11.7 82 1.6 ESE 2 7 1 4 1012.7 1012.7 0.2
24/01:00am 14.8 12.5 11.8 82 1.6 ESE 15 17 8 9 1012.8 1012.8 0.2
24/12:30am 14.6 12.5 11.2 80 1.8 SE 13 15 7 8 1013.2 1013.2 0.2
24/12:00am 15.1 12.6 11.1 77 2.1 ESE 15 17 8 9 1013.3 1013.3 0.2
 
Date/Time
EDT
Temp
°C
App
Temp
°C
Dew
Point
Rel
Hum
%
Delta-T
°C
Wind Press
QNH
hPa
Press
MSL
hPa
Rain
since 9 am
mm
Dir
 
Spd
km/h
Gust
km/h
Spd
kts
Gust
kts
23/11:30pm 16.3 13.9 11.5 73 2.6 ESE 15 17 8 9 1013.7 1013.6 0.2
23/11:00pm 17.2 14.9 11.9 71 2.9 ESE 15 19 8 10 1013.8 1013.7 0.2
23/10:30pm 16.5 14.4 11.0 70 3.0 ESE 13 15 7 8 1013.8 1013.7 0.2
23/10:00pm 17.6 14.8 11.4 67 3.4 SE 17 19 9 10 1013.6 1013.5 0.2
23/09:30pm 18.0 15.8 10.9 63 3.9 SE 13 15 7 8 1013.4 1013.4 0.2
23/09:00pm 20.5 17.9 12.0 58 4.8 SE 17 20 9 11 1012.8 1012.8 0.2
23/08:30pm 20.2 17.9 10.3 53 5.4 S 13 13 7 7 1012.6 1012.6 0.2
23/08:00pm 23.3 22.0 11.4 47 6.7 SSE 9 15 5 8 1012.6 1012.6 0.2
23/07:30pm 25.7 23.2 11.1 40 8.3 ESE 15 19 8 10 1012.2 1012.2 0.2
23/07:00pm 27.8 25.5 10.5 34 9.8 SE 13 17 7 9 1012.1 1012.1 0.2
23/06:30pm 28.9 26.9 10.1 31 10.6 SE 11 19 6 10 1012.0 1012.0 0.2
23/06:00pm 29.4 26.8 9.5 29 11.2 SE 13 20 7 11 1012.3 1012.3 0.2
23/05:30pm 30.2 27.5 9.1 27 11.8 ESE 13 20 7 11 1012.2 1012.2 0.2
23/05:00pm 29.6 27.0 10.7 31 10.8 ESE 15 24 8 13 1012.5 1012.5 0.2
23/04:30pm 29.2 25.8 9.3 29 11.1 SE 17 22 9 12 1012.7 1012.7 0.2
23/04:00pm 29.7 26.2 10.8 31 10.9 ESE 20 32 11 17 1012.7 1012.7 0.2
23/03:30pm 28.8 25.4 10.5 32 10.4 ESE 19 30 10 16 1013.1 1013.1 0.2
23/03:00pm 28.3 24.4 10.9 34 10.0 ESE 22 30 12 16 1013.4 1013.4 0.2
23/02:30pm 28.1 24.9 11.2 35 9.7 ESE 19 28 10 15 1014.1 1014.0 0.2
23/02:00pm 27.0 22.8 11.1 37 9.1 ESE 24 32 13 17 1014.4 1014.3 0.2
23/01:30pm 26.9 22.8 11.4 38 8.9 ESE 24 35 13 19 1014.8 1014.7 0.2
23/01:00pm 26.8 23.2 10.5 36 9.2 ESE 20 28 11 15 1015.1 1015.0 0.2
23/12:30pm 25.8 23.3 11.2 40 8.3 SE 15 22 8 12 1015.6 1015.5 0.2
23/12:00pm 24.9 22.7 10.7 40 8.0 SSE 13 20 7 11 1015.9 1015.9 0.2
23/11:30am 23.0 20.4 10.8 46 6.8 SSE 15 22 8 12 1016.6 1016.6 0.2
23/11:00am 21.5 19.0 10.9 51 5.9 SE 15 20 8 11 1016.8 1016.8 0.0
23/10:30am 20.2 17.7 11.1 56 5.0 SSE 15 22 8 12 1017.0 1017.0 0.0
23/10:00am 18.5 15.9 10.8 61 4.2 SSE 15 20 8 11 1017.1 1017.1 0.0
23/09:30am 16.9 14.2 10.5 66 3.4 SSE 15 20 8 11 1017.2 1017.2 0.0
23/09:00am 15.9 14.1 10.7 71 2.8 SE 11 15 6 8 1017.5 1017.5 0.6
23/08:30am 14.4 12.1 10.6 78 2.0 SSE 13 17 7 9 1017.4 1017.4 0.6
23/08:00am 12.7 11.4 11.4 92 0.7 S 9 11 5 6 1017.3 1017.3 0.6
23/07:30am 10.7 9.0 9.9 95 0.4 S 9 11 5 6 1017.2 1017.2 0.6
23/07:00am 9.0 6.1 8.2 95 0.4 S 13 15 7 8 1017.2 1017.2 0.6
23/06:30am 9.2 6.4 8.4 95 0.4 SSE 13 15 7 8 1017.0 1017.0 0.6
23/06:00am 8.1 5.0 7.2 94 0.4 SE 13 17 7 9 1016.9 1016.9 0.6
23/05:30am 9.5 6.7 8.7 95 0.4 S 13 15 7 8 1016.8 1016.8 0.6
23/05:00am 9.3 6.5 8.4 94 0.4 S 13 13 7 7 1016.6 1016.6 0.6
23/04:30am 9.6 6.8 8.7 94 0.4 S 13 17 7 9 1016.7 1016.7 0.6
23/04:00am 10.1 7.4 9.0 93 0.5 S 13 15 7 8 1016.8 1016.8 0.6
23/03:30am 10.4 7.8 9.2 92 0.6 S 13 15 7 8 1017.0 1017.0 0.6
23/03:00am 11.3 8.9 9.9 91 0.7 S 13 17 7 9 1017.2 1017.2 0.6
23/02:30am 12.1 9.1 10.5 90 0.8 S 17 22 9 12 1017.2 1017.2 0.6
23/02:00am 12.3 9.3 10.5 89 0.9 S 17 19 9 10 1017.3 1017.3 0.6
23/01:30am 12.9 9.6 10.8 87 1.1 SSW 19 22 10 12 1017.5 1017.5 0.6
23/01:00am 13.3 10.3 10.8 85 1.3 S 17 20 9 11 1017.6 1017.6 0.6
23/12:30am 14.2 10.8 11.2 82 1.6 S 20 26 11 14 1017.6 1017.6 0.6
23/12:00am 14.9 11.8 11.7 81 1.7 SSW 19 22 10 12 1017.3 1017.3 0.6
 
Date/Time
EDT
Temp
°C
App
Temp
°C
Dew
Point
Rel
Hum
%
Delta-T
°C
Wind Press
QNH
hPa
Press
MSL
hPa
Rain
since 9 am
mm
Dir
 
Spd
km/h
Gust
km/h
Spd
kts
Gust
kts
22/11:30pm 15.7 12.7 12.1 79 2.0 SSW 19 24 10 13 1017.2 1017.2 0.6
22/11:00pm 16.8 13.7 12.1 74 2.6 SSW 20 26 11 14 1017.3 1017.3 0.6
22/10:30pm 17.8 15.4 12.5 71 3.0 S 17 19 9 10 1017.2 1017.2 0.6

Other Formats:

Comma delimited format used in spreadsheet applications
http://www.bom.gov.au/fwo/IDV60801/IDV60801.95839.axf

JavaScript Object Notation format (JSON) in row-major order
http://www.bom.gov.au/fwo/IDV60801/IDV60801.95839.json